createdAt,value
2022-11-24T00:02:56.950Z,88.64
2022-11-24T00:07:59.118Z,88.70
2022-11-24T00:13:02.572Z,88.68
2022-11-24T00:18:04.617Z,88.46
2022-11-24T00:23:08.014Z,89.02
2022-11-24T00:28:11.390Z,89.24
2022-11-24T00:33:13.384Z,89.11
2022-11-24T00:38:15.368Z,88.43
2022-11-24T00:43:19.101Z,88.91
2022-11-24T00:48:21.394Z,89.59
2022-11-24T00:53:23.410Z,90.36
2022-11-24T00:58:26.966Z,90.50
2022-11-24T01:03:29.015Z,90.60
2022-11-24T01:08:31.158Z,90.22
2022-11-24T01:13:34.469Z,90.47
2022-11-24T01:18:36.511Z,90.63
2022-11-24T01:23:38.685Z,91.15
2022-11-24T01:28:46.997Z,91.60
2022-11-24T01:33:49.988Z,91.53
2022-11-24T01:38:52.192Z,91.71
2022-11-24T01:43:56.411Z,91.26
2022-11-24T01:49:01.821Z,91.29
2022-11-24T01:54:09.204Z,91.66
2022-11-24T01:59:15.182Z,91.58
2022-11-24T02:04:23.863Z,91.31
2022-11-24T02:09:31.187Z,91.34
2022-11-24T02:14:37.901Z,92.19
2022-11-24T02:19:48.980Z,91.16
2022-11-24T02:24:56.229Z,91.87
2022-11-24T02:29:59.640Z,92.21
2022-11-24T02:35:02.470Z,91.57
2022-11-24T02:40:05.572Z,91.30
2022-11-24T02:45:11.364Z,92.09
2022-11-24T02:50:13.365Z,92.61
2022-11-24T02:55:15.546Z,92.04
2022-11-24T03:00:19.482Z,91.92
2022-11-24T03:05:21.509Z,91.86
2022-11-24T03:10:24.475Z,91.78
2022-11-24T03:15:27.915Z,91.86
2022-11-24T03:20:30.140Z,91.87
2022-11-24T03:25:32.184Z,91.65
2022-11-24T03:30:35.594Z,91.47
2022-11-24T03:35:37.590Z,92.23
2022-11-24T03:40:39.652Z,91.62
2022-11-24T03:45:46.521Z,92.11
2022-11-24T03:50:54.025Z,90.74
2022-11-24T03:55:56.799Z,91.17
2022-11-24T04:01:00.179Z,91.58
2022-11-24T04:06:02.257Z,91.39
2022-11-24T04:11:04.613Z,91.78
2022-11-24T04:16:09.079Z,90.84
2022-11-24T04:21:11.125Z,90.50
2022-11-24T04:26:13.806Z,89.70
2022-11-24T04:31:18.285Z,89.58
2022-11-24T04:36:20.479Z,89.29
2022-11-24T04:41:22.500Z,89.32
2022-11-24T04:46:25.865Z,89.67
2022-11-24T04:51:27.972Z,90.73
2022-11-24T04:56:30.004Z,90.86
2022-11-24T05:01:33.446Z,91.03
2022-11-24T05:06:39.057Z,90.14
2022-11-24T05:11:43.279Z,90.48
2022-11-24T05:16:46.560Z,89.67
2022-11-24T05:21:48.700Z,88.46
2022-11-24T05:26:51.124Z,88.22
2022-11-24T05:31:54.519Z,90.45
2022-11-24T05:37:02.714Z,89.76
2022-11-24T05:42:25.536Z,91.20
2022-11-24T05:47:28.835Z,89.88
2022-11-24T05:52:35.997Z,89.88
2022-11-24T05:57:39.026Z,90.35
2022-11-24T06:02:42.369Z,90.28
2022-11-24T06:07:44.655Z,88.93
2022-11-24T06:12:47.536Z,88.60
2022-11-24T06:17:55.672Z,88.51
2022-11-24T06:22:57.829Z,88.58
2022-11-24T06:28:03.422Z,88.66
2022-11-24T06:33:06.703Z,89.49
2022-11-24T06:38:08.754Z,88.78
2022-11-24T06:43:10.746Z,88.13
2022-11-24T06:48:14.050Z,86.71
2022-11-24T06:53:16.017Z,85.75
2022-11-24T06:58:17.977Z,84.99
2022-11-24T07:03:21.660Z,86.40
2022-11-24T07:08:23.733Z,87.19
2022-11-24T07:13:25.672Z,86.77
2022-11-24T07:18:29.118Z,87.18
2022-11-24T07:23:31.187Z,86.84
2022-11-24T07:28:34.056Z,87.43
2022-11-24T07:33:37.782Z,88.39
2022-11-24T07:38:40.071Z,89.58
2022-11-24T07:43:42.232Z,90.41
2022-11-24T07:48:45.533Z,90.07
2022-11-24T07:53:47.594Z,90.09
2022-11-24T08:04:07.007Z,90.26
2022-11-24T08:09:09.045Z,90.48
2022-11-24T08:14:10.961Z,90.87
2022-11-24T08:19:14.278Z,90.25
2022-11-24T08:24:16.999Z,90.73
2022-11-24T08:29:18.976Z,90.60
2022-11-24T08:34:23.008Z,90.86
2022-11-24T08:39:24.877Z,91.03
2022-11-24T08:44:28.756Z,90.54
2022-11-24T08:49:32.134Z,89.33
2022-11-24T08:54:34.559Z,88.35
2022-11-24T08:59:36.914Z,88.29
2022-11-24T09:04:40.561Z,87.20
2022-11-24T09:09:42.555Z,88.59
2022-11-24T09:14:44.509Z,88.42
2022-11-24T09:19:48.091Z,87.77
2022-11-24T09:24:50.063Z,87.54
2022-11-24T09:29:52.212Z,87.38
2022-11-24T09:34:55.479Z,86.72
2022-11-24T09:39:57.383Z,86.92
2022-11-24T09:45:48.867Z,86.99
2022-11-24T09:50:49.058Z,87.38
2022-11-24T09:55:53.847Z,86.88
2022-11-24T10:00:57.705Z,86.16
2022-11-24T10:06:04.042Z,86.72
2022-11-24T10:11:12.853Z,87.17
2022-11-24T10:16:26.867Z,87.69
2022-11-24T10:21:47.276Z,86.34
2022-11-24T10:26:54.148Z,86.52
2022-11-24T10:31:57.023Z,85.97
2022-11-24T10:37:06.560Z,85.79
2022-11-24T10:42:17.650Z,86.32
2022-11-24T10:47:22.676Z,85.32
2022-11-24T10:52:28.644Z,85.72
2022-11-24T10:57:33.157Z,85.03
2022-11-24T11:02:37.455Z,85.98
2022-11-24T11:07:41.059Z,86.19
2022-11-24T11:12:45.823Z,86.07
2022-11-24T11:17:50.398Z,86.29
2022-11-24T11:22:56.064Z,86.45
2022-11-24T11:28:26.586Z,85.61
2022-11-24T11:38:54.067Z,85.40
2022-11-24T11:44:09.554Z,86.15
2022-11-24T11:49:13.470Z,85.28
2022-11-24T11:54:30.242Z,85.52
2022-11-24T11:59:47.505Z,85.04
2022-11-24T12:04:53.016Z,84.38
2022-11-24T12:10:03.148Z,84.60
2022-11-24T12:15:14.727Z,84.69
2022-11-24T12:20:46.975Z,85.13
2022-11-24T12:25:57.708Z,86.44
2022-11-24T12:31:08.225Z,86.64
2022-11-24T12:36:16.365Z,86.99
2022-11-24T12:41:45.741Z,87.70
2022-11-24T12:46:56.804Z,87.28
2022-11-24T12:52:03.201Z,87.93
2022-11-24T12:57:12.838Z,88.69
2022-11-24T13:02:24.367Z,88.00
2022-11-24T13:07:39.577Z,87.90
2022-11-24T13:12:54.810Z,88.09
2022-11-24T13:18:08.545Z,87.85
2022-11-24T13:23:25.526Z,88.21
2022-11-24T13:29:13.318Z,88.58
2022-11-24T13:34:56.903Z,87.68
2022-11-24T13:40:00.701Z,87.62
2022-11-24T13:45:05.810Z,88.51
2022-11-24T13:50:23.546Z,88.96
2022-11-24T13:55:33.116Z,89.53
2022-11-24T14:00:58.392Z,89.07
2022-11-24T14:06:02.156Z,89.20
2022-11-24T14:11:13.132Z,88.05
2022-11-24T14:16:18.720Z,88.35
2022-11-24T14:21:25.130Z,88.65
2022-11-24T14:26:33.308Z,89.03
2022-11-24T14:31:37.074Z,87.92
2022-11-24T14:36:39.829Z,88.07
2022-11-24T14:41:44.052Z,88.76
2022-11-24T14:46:48.024Z,88.88
2022-11-24T14:51:55.794Z,88.31
2022-11-24T14:57:00.462Z,89.27
2022-11-24T15:02:38.145Z,89.18
2022-11-24T15:07:43.650Z,89.81
2022-11-24T15:12:52.363Z,89.29
2022-11-24T15:17:57.156Z,89.27
2022-11-24T15:30:58.337Z,90.46
2022-11-24T15:36:01.868Z,89.36
2022-11-24T15:41:17.328Z,89.39
2022-11-24T15:46:19.364Z,89.76
2022-11-24T15:51:25.988Z,89.34
2022-11-24T15:56:30.740Z,88.98
2022-11-24T16:01:34.271Z,89.10
2022-11-24T16:06:37.877Z,89.87
2022-11-24T16:11:39.807Z,89.91
2022-11-24T16:16:41.912Z,89.06
2022-11-24T16:21:47.205Z,89.59
2022-11-24T16:26:49.291Z,89.71
2022-11-24T16:31:51.956Z,90.10
2022-11-24T16:36:55.362Z,89.61
2022-11-24T16:41:57.307Z,89.76
2022-11-24T16:46:59.279Z,89.97
2022-11-24T16:52:02.612Z,89.89
2022-11-24T16:57:04.590Z,89.88
2022-11-24T17:02:07.044Z,90.07
2022-11-24T17:07:10.686Z,89.83
2022-11-24T17:12:12.745Z,90.01
2022-11-24T17:17:14.680Z,90.24
2022-11-24T17:22:18.010Z,89.98
2022-11-24T17:27:19.982Z,90.34
2022-11-24T17:32:22.400Z,90.20
2022-11-24T17:37:25.705Z,89.99
2022-11-24T17:42:27.670Z,89.71
2022-11-24T17:47:30.195Z,89.62
2022-11-24T17:52:33.527Z,89.21
2022-11-24T17:57:35.506Z,89.74
2022-11-24T18:02:37.953Z,90.20
2022-11-24T18:07:41.483Z,90.49
2022-11-24T18:12:43.659Z,90.50
2022-11-24T18:17:45.640Z,89.66
2022-11-24T18:23:05.233Z,90.52
2022-11-24T18:28:08.211Z,90.66
2022-11-24T18:33:10.187Z,90.82
2022-11-24T18:38:13.541Z,90.15
2022-11-24T18:43:15.500Z,90.03
2022-11-24T18:48:17.480Z,89.84
2022-11-24T18:53:22.212Z,90.29
2022-11-24T18:58:25.053Z,90.19
2022-11-24T19:03:27.044Z,91.08
2022-11-24T19:08:30.438Z,90.92
2022-11-24T19:13:32.615Z,91.39
2022-11-24T19:18:34.573Z,91.25
2022-11-24T19:23:37.997Z,90.72
2022-11-24T19:28:39.984Z,91.27
2022-11-24T19:33:42.292Z,90.02
2022-11-24T19:38:52.457Z,91.03
2022-11-24T19:43:54.973Z,90.26
2022-11-24T19:48:59.975Z,90.53
2022-11-24T19:54:04.951Z,90.32
2022-11-24T19:59:07.016Z,89.01
2022-11-24T20:04:11.512Z,88.96
2022-11-24T20:09:16.376Z,88.34
2022-11-24T20:14:19.370Z,87.41
2022-11-24T20:19:21.417Z,87.00
2022-11-24T20:24:24.985Z,88.63
2022-11-24T20:29:29.089Z,89.66
2022-11-24T20:34:31.133Z,90.45
2022-11-24T20:39:34.487Z,90.24
2022-11-24T20:44:36.817Z,89.47
2022-11-24T20:49:39.016Z,89.10
2022-11-24T20:54:42.308Z,88.31
2022-11-24T20:59:44.268Z,88.13
2022-11-24T21:04:46.510Z,88.85
2022-11-24T21:09:49.804Z,90.34
2022-11-24T21:14:51.803Z,89.81
2022-11-24T21:19:59.596Z,90.03
2022-11-24T21:25:04.656Z,89.52
2022-11-24T21:30:07.906Z,89.28
2022-11-24T21:35:10.169Z,88.47
2022-11-24T21:40:14.992Z,89.17
2022-11-24T21:45:16.974Z,89.17
2022-11-24T21:50:18.943Z,89.63
2022-11-24T21:55:22.235Z,89.38
2022-11-24T22:00:24.644Z,89.66
2022-11-24T22:05:26.569Z,90.37
2022-11-24T22:10:29.858Z,90.76
2022-11-24T22:15:31.848Z,90.19
2022-11-24T22:20:33.993Z,89.39
2022-11-24T22:25:37.472Z,88.51
2022-11-24T22:30:39.393Z,88.43
2022-11-24T22:35:41.324Z,88.08
2022-11-24T22:40:44.603Z,88.05
2022-11-24T22:45:46.776Z,88.34
2022-11-24T22:50:48.740Z,88.82
2022-11-24T22:55:52.003Z,89.29
2022-11-24T23:00:54.653Z,88.19
2022-11-24T23:05:59.105Z,87.88
2022-11-24T23:11:04.424Z,88.07
2022-11-24T23:16:08.582Z,88.07
2022-11-24T23:21:12.212Z,88.42
2022-11-24T23:26:17.311Z,88.47
2022-11-24T23:31:21.499Z,87.89
2022-11-24T23:36:23.582Z,88.12
2022-11-24T23:41:26.852Z,88.04
2022-11-24T23:46:29.192Z,87.56
2022-11-24T23:51:32.657Z,88.37
2022-11-24T23:56:36.055Z,87.21
